sensor_id;sensor_type;location;lat;lon;timestamp;P1;durP1;ratioP1;P2;durP2;ratioP2
13483;SDS011;6814;57.786;12.080;2022-09-25T00:01:47;21.60;;;19.20;;
13483;SDS011;6814;57.786;12.080;2022-09-25T00:04:13;24.33;;;20.47;;
13483;SDS011;6814;57.786;12.080;2022-09-25T00:06:40;24.00;;;20.03;;
13483;SDS011;6814;57.786;12.080;2022-09-25T00:09:06;28.27;;;21.67;;
13483;SDS011;6814;57.786;12.080;2022-09-25T00:11:33;24.00;;;20.57;;
13483;SDS011;6814;57.786;12.080;2022-09-25T00:14:04;28.60;;;20.50;;
13483;SDS011;6814;57.786;12.080;2022-09-25T00:16:30;25.67;;;20.40;;
13483;SDS011;6814;57.786;12.080;2022-09-25T00:18:57;28.07;;;18.97;;
13483;SDS011;6814;57.786;12.080;2022-09-25T00:21:41;30.00;;;19.53;;
13483;SDS011;6814;57.786;12.080;2022-09-25T00:24:08;24.20;;;19.87;;
13483;SDS011;6814;57.786;12.080;2022-09-25T00:26:35;27.37;;;21.33;;
13483;SDS011;6814;57.786;12.080;2022-09-25T00:29:04;27.17;;;22.87;;
13483;SDS011;6814;57.786;12.080;2022-09-25T00:31:31;33.47;;;25.90;;
13483;SDS011;6814;57.786;12.080;2022-09-25T00:33:58;27.70;;;23.47;;
13483;SDS011;6814;57.786;12.080;2022-09-25T00:36:25;30.30;;;22.53;;
13483;SDS011;6814;57.786;12.080;2022-09-25T00:38:52;31.17;;;24.37;;
13483;SDS011;6814;57.786;12.080;2022-09-25T00:41:19;30.83;;;25.27;;
13483;SDS011;6814;57.786;12.080;2022-09-25T00:43:46;31.27;;;24.30;;
13483;SDS011;6814;57.786;12.080;2022-09-25T00:46:17;29.30;;;23.97;;
13483;SDS011;6814;57.786;12.080;2022-09-25T00:48:46;31.40;;;24.13;;
13483;SDS011;6814;57.786;12.080;2022-09-25T00:51:13;27.40;;;24.07;;
13483;SDS011;6814;57.786;12.080;2022-09-25T00:53:41;27.47;;;22.87;;
13483;SDS011;6814;57.786;12.080;2022-09-25T00:56:08;27.50;;;22.63;;
13483;SDS011;6814;57.786;12.080;2022-09-25T00:58:35;29.17;;;23.40;;
13483;SDS011;6814;57.786;12.080;2022-09-25T01:01:02;30.27;;;23.53;;
13483;SDS011;6814;57.786;12.080;2022-09-25T01:03:30;28.80;;;22.40;;
13483;SDS011;6814;57.786;12.080;2022-09-25T01:05:58;33.93;;;20.97;;
13483;SDS011;6814;57.786;12.080;2022-09-25T01:08:25;42.43;;;22.77;;
13483;SDS011;6814;57.786;12.080;2022-09-25T01:10:53;28.47;;;21.60;;
13483;SDS011;6814;57.786;12.080;2022-09-25T01:13:20;28.23;;;22.90;;
13483;SDS011;6814;57.786;12.080;2022-09-25T01:15:47;28.23;;;22.73;;
13483;SDS011;6814;57.786;12.080;2022-09-25T01:18:19;31.87;;;22.97;;
13483;SDS011;6814;57.786;12.080;2022-09-25T01:21:02;28.63;;;22.00;;
13483;SDS011;6814;57.786;12.080;2022-09-25T01:23:36;24.20;;;20.97;;
13483;SDS011;6814;57.786;12.080;2022-09-25T01:26:13;22.77;;;19.77;;
13483;SDS011;6814;57.786;12.080;2022-09-25T01:28:50;24.80;;;20.97;;
13483;SDS011;6814;57.786;12.080;2022-09-25T01:31:20;23.43;;;18.50;;
13483;SDS011;6814;57.786;12.080;2022-09-25T01:33:53;24.23;;;18.40;;
13483;SDS011;6814;57.786;12.080;2022-09-25T01:36:22;20.97;;;17.43;;
13483;SDS011;6814;57.786;12.080;2022-09-25T01:38:51;20.23;;;16.97;;
13483;SDS011;6814;57.786;12.080;2022-09-25T01:41:19;25.47;;;18.40;;
13483;SDS011;6814;57.786;12.080;2022-09-25T01:43:49;21.60;;;17.73;;
13483;SDS011;6814;57.786;12.080;2022-09-25T01:46:19;23.20;;;19.57;;
13483;SDS011;6814;57.786;12.080;2022-09-25T01:48:48;20.70;;;16.17;;
13483;SDS011;6814;57.786;12.080;2022-09-25T01:51:16;47.17;;;15.10;;
13483;SDS011;6814;57.786;12.080;2022-09-25T01:53:45;15.93;;;14.43;;
13483;SDS011;6814;57.786;12.080;2022-09-25T01:56:15;21.03;;;16.33;;
13483;SDS011;6814;57.786;12.080;2022-09-25T01:58:44;20.13;;;16.07;;
13483;SDS011;6814;57.786;12.080;2022-09-25T02:01:13;19.97;;;17.83;;
13483;SDS011;6814;57.786;12.080;2022-09-25T02:03:45;20.43;;;18.20;;
13483;SDS011;6814;57.786;12.080;2022-09-25T02:06:13;19.80;;;17.70;;
13483;SDS011;6814;57.786;12.080;2022-09-25T02:08:44;21.00;;;16.40;;
13483;SDS011;6814;57.786;12.080;2022-09-25T02:11:12;19.03;;;16.13;;
13483;SDS011;6814;57.786;12.080;2022-09-25T02:13:39;19.73;;;17.50;;
13483;SDS011;6814;57.786;12.080;2022-09-25T02:16:09;19.63;;;17.53;;
13483;SDS011;6814;57.786;12.080;2022-09-25T02:18:36;21.60;;;18.13;;
13483;SDS011;6814;57.786;12.080;2022-09-25T02:21:22;22.10;;;18.30;;
13483;SDS011;6814;57.786;12.080;2022-09-25T02:23:51;24.93;;;19.13;;
13483;SDS011;6814;57.786;12.080;2022-09-25T02:26:20;26.27;;;19.27;;
13483;SDS011;6814;57.786;12.080;2022-09-25T02:28:47;23.80;;;19.37;;
13483;SDS011;6814;57.786;12.080;2022-09-25T02:31:17;29.33;;;20.97;;
13483;SDS011;6814;57.786;12.080;2022-09-25T02:33:45;19.80;;;17.70;;
13483;SDS011;6814;57.786;12.080;2022-09-25T02:36:15;19.67;;;17.60;;
13483;SDS011;6814;57.786;12.080;2022-09-25T02:38:42;19.23;;;16.93;;
13483;SDS011;6814;57.786;12.080;2022-09-25T02:41:10;19.03;;;14.20;;
13483;SDS011;6814;57.786;12.080;2022-09-25T02:43:42;75.57;;;13.90;;
13483;SDS011;6814;57.786;12.080;2022-09-25T02:46:12;55.37;;;13.97;;
13483;SDS011;6814;57.786;12.080;2022-09-25T02:48:46;18.93;;;11.30;;
13483;SDS011;6814;57.786;12.080;2022-09-25T02:51:17;31.67;;;11.97;;
13483;SDS011;6814;57.786;12.080;2022-09-25T02:53:47;40.33;;;12.33;;
13483;SDS011;6814;57.786;12.080;2022-09-25T02:56:19;91.47;;;14.47;;
13483;SDS011;6814;57.786;12.080;2022-09-25T02:58:50;48.10;;;13.17;;
13483;SDS011;6814;57.786;12.080;2022-09-25T03:01:19;50.10;;;12.37;;
13483;SDS011;6814;57.786;12.080;2022-09-25T03:03:48;27.80;;;12.47;;
13483;SDS011;6814;57.786;12.080;2022-09-25T03:06:15;13.73;;;12.30;;
13483;SDS011;6814;57.786;12.080;2022-09-25T03:08:43;15.20;;;13.53;;
13483;SDS011;6814;57.786;12.080;2022-09-25T03:11:12;16.23;;;12.70;;
13483;SDS011;6814;57.786;12.080;2022-09-25T03:13:39;50.13;;;15.37;;
13483;SDS011;6814;57.786;12.080;2022-09-25T03:16:06;30.83;;;13.70;;
13483;SDS011;6814;57.786;12.080;2022-09-25T03:18:33;38.07;;;14.50;;
13483;SDS011;6814;57.786;12.080;2022-09-25T03:20:59;31.70;;;12.63;;
13483;SDS011;6814;57.786;12.080;2022-09-25T03:23:28;36.43;;;14.47;;
13483;SDS011;6814;57.786;12.080;2022-09-25T03:25:55;15.23;;;13.07;;
13483;SDS011;6814;57.786;12.080;2022-09-25T03:28:23;17.67;;;14.00;;
13483;SDS011;6814;57.786;12.080;2022-09-25T03:30:57;18.27;;;14.63;;
13483;SDS011;6814;57.786;12.080;2022-09-25T03:33:24;18.77;;;15.87;;
13483;SDS011;6814;57.786;12.080;2022-09-25T03:35:58;19.07;;;16.93;;
13483;SDS011;6814;57.786;12.080;2022-09-25T03:38:24;18.67;;;16.67;;
13483;SDS011;6814;57.786;12.080;2022-09-25T03:40:51;18.00;;;15.33;;
13483;SDS011;6814;57.786;12.080;2022-09-25T03:43:17;22.73;;;17.63;;
13483;SDS011;6814;57.786;12.080;2022-09-25T03:45:45;19.30;;;16.93;;
13483;SDS011;6814;57.786;12.080;2022-09-25T03:48:11;18.40;;;16.57;;
13483;SDS011;6814;57.786;12.080;2022-09-25T03:50:37;23.97;;;19.97;;
13483;SDS011;6814;57.786;12.080;2022-09-25T03:53:04;32.07;;;22.70;;
13483;SDS011;6814;57.786;12.080;2022-09-25T03:55:30;28.90;;;23.10;;
13483;SDS011;6814;57.786;12.080;2022-09-25T03:57:57;27.60;;;20.47;;
13483;SDS011;6814;57.786;12.080;2022-09-25T04:00:24;27.73;;;20.87;;
13483;SDS011;6814;57.786;12.080;2022-09-25T04:02:51;21.40;;;18.93;;
13483;SDS011;6814;57.786;12.080;2022-09-25T04:05:18;24.00;;;19.97;;
13483;SDS011;6814;57.786;12.080;2022-09-25T04:07:45;22.53;;;17.00;;
13483;SDS011;6814;57.786;12.080;2022-09-25T04:10:12;22.03;;;16.97;;
13483;SDS011;6814;57.786;12.080;2022-09-25T04:12:38;22.87;;;17.93;;
13483;SDS011;6814;57.786;12.080;2022-09-25T04:15:06;24.90;;;17.20;;
13483;SDS011;6814;57.786;12.080;2022-09-25T04:17:34;25.97;;;18.57;;
13483;SDS011;6814;57.786;12.080;2022-09-25T04:20:02;21.90;;;18.57;;
13483;SDS011;6814;57.786;12.080;2022-09-25T04:22:28;22.63;;;18.20;;
13483;SDS011;6814;57.786;12.080;2022-09-25T04:24:55;24.43;;;19.47;;
13483;SDS011;6814;57.786;12.080;2022-09-25T04:27:24;22.93;;;18.60;;
13483;SDS011;6814;57.786;12.080;2022-09-25T04:29:52;32.97;;;18.83;;
13483;SDS011;6814;57.786;12.080;2022-09-25T04:32:18;185.33;;;21.47;;
13483;SDS011;6814;57.786;12.080;2022-09-25T04:35:04;275.53;;;21.97;;
13483;SDS011;6814;57.786;12.080;2022-09-25T04:37:30;218.47;;;20.67;;
13483;SDS011;6814;57.786;12.080;2022-09-25T04:39:56;224.17;;;19.53;;
13483;SDS011;6814;57.786;12.080;2022-09-25T04:42:24;152.67;;;18.43;;
13483;SDS011;6814;57.786;12.080;2022-09-25T04:44:53;145.93;;;16.97;;
13483;SDS011;6814;57.786;12.080;2022-09-25T04:47:20;177.07;;;17.87;;
13483;SDS011;6814;57.786;12.080;2022-09-25T04:49:47;236.17;;;20.80;;
13483;SDS011;6814;57.786;12.080;2022-09-25T04:52:15;232.73;;;19.70;;
13483;SDS011;6814;57.786;12.080;2022-09-25T04:54:42;234.27;;;22.33;;
13483;SDS011;6814;57.786;12.080;2022-09-25T04:57:09;164.10;;;18.70;;
13483;SDS011;6814;57.786;12.080;2022-09-25T04:59:39;196.57;;;19.83;;
13483;SDS011;6814;57.786;12.080;2022-09-25T05:02:06;113.00;;;18.70;;
13483;SDS011;6814;57.786;12.080;2022-09-25T05:04:32;86.03;;;17.93;;
13483;SDS011;6814;57.786;12.080;2022-09-25T05:06:59;77.03;;;16.83;;
13483;SDS011;6814;57.786;12.080;2022-09-25T05:09:27;53.47;;;17.03;;
13483;SDS011;6814;57.786;12.080;2022-09-25T05:11:53;29.27;;;16.27;;
13483;SDS011;6814;57.786;12.080;2022-09-25T05:14:19;28.40;;;16.90;;
13483;SDS011;6814;57.786;12.080;2022-09-25T05:16:46;25.90;;;17.97;;
13483;SDS011;6814;57.786;12.080;2022-09-25T05:19:13;22.97;;;18.77;;
13483;SDS011;6814;57.786;12.080;2022-09-25T05:21:39;23.10;;;19.97;;
13483;SDS011;6814;57.786;12.080;2022-09-25T05:24:06;20.37;;;18.17;;
13483;SDS011;6814;57.786;12.080;2022-09-25T05:26:34;24.93;;;20.63;;
13483;SDS011;6814;57.786;12.080;2022-09-25T05:29:01;22.07;;;19.73;;
13483;SDS011;6814;57.786;12.080;2022-09-25T05:31:28;27.13;;;21.90;;
13483;SDS011;6814;57.786;12.080;2022-09-25T05:33:55;31.23;;;23.70;;
13483;SDS011;6814;57.786;12.080;2022-09-25T05:36:21;32.13;;;24.90;;
13483;SDS011;6814;57.786;12.080;2022-09-25T05:38:48;29.70;;;23.57;;
13483;SDS011;6814;57.786;12.080;2022-09-25T05:41:16;36.70;;;26.53;;
13483;SDS011;6814;57.786;12.080;2022-09-25T05:43:44;34.60;;;26.07;;
13483;SDS011;6814;57.786;12.080;2022-09-25T05:46:11;32.17;;;25.90;;
13483;SDS011;6814;57.786;12.080;2022-09-25T05:48:38;29.20;;;24.83;;
13483;SDS011;6814;57.786;12.080;2022-09-25T05:51:04;27.17;;;24.20;;
13483;SDS011;6814;57.786;12.080;2022-09-25T05:53:31;31.43;;;26.07;;
13483;SDS011;6814;57.786;12.080;2022-09-25T05:55:58;33.73;;;25.97;;
13483;SDS011;6814;57.786;12.080;2022-09-25T05:58:25;31.53;;;24.87;;
13483;SDS011;6814;57.786;12.080;2022-09-25T06:00:53;33.23;;;26.27;;
13483;SDS011;6814;57.786;12.080;2022-09-25T06:03:20;35.40;;;27.50;;
13483;SDS011;6814;57.786;12.080;2022-09-25T06:05:46;31.43;;;25.67;;
13483;SDS011;6814;57.786;12.080;2022-09-25T06:08:13;31.63;;;26.53;;
13483;SDS011;6814;57.786;12.080;2022-09-25T06:10:40;31.30;;;25.27;;
13483;SDS011;6814;57.786;12.080;2022-09-25T06:13:07;31.23;;;25.27;;
13483;SDS011;6814;57.786;12.080;2022-09-25T06:15:34;33.37;;;26.33;;
13483;SDS011;6814;57.786;12.080;2022-09-25T06:18:02;32.30;;;26.10;;
13483;SDS011;6814;57.786;12.080;2022-09-25T06:20:29;30.50;;;24.80;;
13483;SDS011;6814;57.786;12.080;2022-09-25T06:22:56;28.63;;;24.47;;
13483;SDS011;6814;57.786;12.080;2022-09-25T06:25:24;31.10;;;26.17;;
13483;SDS011;6814;57.786;12.080;2022-09-25T06:27:51;29.43;;;26.00;;
13483;SDS011;6814;57.786;12.080;2022-09-25T06:30:18;33.30;;;26.13;;
13483;SDS011;6814;57.786;12.080;2022-09-25T06:32:46;37.10;;;28.00;;
13483;SDS011;6814;57.786;12.080;2022-09-25T06:35:14;31.00;;;24.77;;
13483;SDS011;6814;57.786;12.080;2022-09-25T06:37:40;35.80;;;27.97;;
13483;SDS011;6814;57.786;12.080;2022-09-25T06:40:07;34.60;;;28.03;;
13483;SDS011;6814;57.786;12.080;2022-09-25T06:42:34;34.93;;;29.57;;
13483;SDS011;6814;57.786;12.080;2022-09-25T06:45:00;34.27;;;26.70;;
13483;SDS011;6814;57.786;12.080;2022-09-25T06:47:27;30.77;;;26.13;;
13483;SDS011;6814;57.786;12.080;2022-09-25T06:49:53;33.17;;;27.30;;
13483;SDS011;6814;57.786;12.080;2022-09-25T06:52:21;33.23;;;27.30;;
13483;SDS011;6814;57.786;12.080;2022-09-25T06:54:47;33.10;;;28.20;;
13483;SDS011;6814;57.786;12.080;2022-09-25T06:57:14;32.03;;;28.20;;
13483;SDS011;6814;57.786;12.080;2022-09-25T06:59:40;34.80;;;29.37;;
13483;SDS011;6814;57.786;12.080;2022-09-25T07:02:07;30.47;;;27.17;;
13483;SDS011;6814;57.786;12.080;2022-09-25T07:04:47;35.03;;;28.10;;
13483;SDS011;6814;57.786;12.080;2022-09-25T07:07:15;35.97;;;31.00;;
13483;SDS011;6814;57.786;12.080;2022-09-25T07:09:46;34.53;;;28.63;;
13483;SDS011;6814;57.786;12.080;2022-09-25T07:12:13;39.87;;;32.57;;
13483;SDS011;6814;57.786;12.080;2022-09-25T07:14:39;39.00;;;31.93;;
13483;SDS011;6814;57.786;12.080;2022-09-25T07:17:08;45.10;;;35.47;;
13483;SDS011;6814;57.786;12.080;2022-09-25T07:19:34;61.00;;;37.23;;
13483;SDS011;6814;57.786;12.080;2022-09-25T07:22:00;45.77;;;35.10;;
13483;SDS011;6814;57.786;12.080;2022-09-25T07:24:29;46.53;;;34.53;;
13483;SDS011;6814;57.786;12.080;2022-09-25T07:26:56;37.87;;;32.00;;
13483;SDS011;6814;57.786;12.080;2022-09-25T07:29:23;38.77;;;32.30;;
13483;SDS011;6814;57.786;12.080;2022-09-25T07:31:49;45.03;;;34.43;;
13483;SDS011;6814;57.786;12.080;2022-09-25T07:34:16;39.87;;;33.37;;
13483;SDS011;6814;57.786;12.080;2022-09-25T07:36:42;34.27;;;30.57;;
13483;SDS011;6814;57.786;12.080;2022-09-25T07:39:09;24.70;;;22.07;;
13483;SDS011;6814;57.786;12.080;2022-09-25T07:41:35;24.50;;;22.10;;
13483;SDS011;6814;57.786;12.080;2022-09-25T07:44:03;24.47;;;22.13;;
13483;SDS011;6814;57.786;12.080;2022-09-25T07:46:30;39.60;;;32.70;;
13483;SDS011;6814;57.786;12.080;2022-09-25T07:48:57;22.90;;;20.77;;
13483;SDS011;6814;57.786;12.080;2022-09-25T07:51:24;25.80;;;23.20;;
13483;SDS011;6814;57.786;12.080;2022-09-25T07:53:51;24.97;;;22.40;;
13483;SDS011;6814;57.786;12.080;2022-09-25T07:56:17;24.57;;;21.97;;
13483;SDS011;6814;57.786;12.080;2022-09-25T07:58:44;24.63;;;22.17;;
13483;SDS011;6814;57.786;12.080;2022-09-25T08:01:12;25.87;;;22.67;;
13483;SDS011;6814;57.786;12.080;2022-09-25T08:03:39;25.83;;;23.07;;
13483;SDS011;6814;57.786;12.080;2022-09-25T08:06:06;27.30;;;24.50;;
13483;SDS011;6814;57.786;12.080;2022-09-25T08:08:33;26.40;;;22.10;;
13483;SDS011;6814;57.786;12.080;2022-09-25T08:11:00;23.03;;;20.73;;
13483;SDS011;6814;57.786;12.080;2022-09-25T08:13:27;24.50;;;21.90;;
13483;SDS011;6814;57.786;12.080;2022-09-25T08:15:54;23.77;;;21.53;;
13483;SDS011;6814;57.786;12.080;2022-09-25T08:18:22;24.83;;;22.47;;
13483;SDS011;6814;57.786;12.080;2022-09-25T08:20:49;30.37;;;27.27;;
13483;SDS011;6814;57.786;12.080;2022-09-25T08:23:16;30.47;;;27.27;;
13483;SDS011;6814;57.786;12.080;2022-09-25T08:25:45;33.37;;;29.17;;
13483;SDS011;6814;57.786;12.080;2022-09-25T08:28:12;28.90;;;25.47;;
13483;SDS011;6814;57.786;12.080;2022-09-25T08:30:38;27.80;;;24.90;;
13483;SDS011;6814;57.786;12.080;2022-09-25T08:33:08;26.93;;;24.23;;
13483;SDS011;6814;57.786;12.080;2022-09-25T08:35:37;25.33;;;22.70;;
13483;SDS011;6814;57.786;12.080;2022-09-25T08:38:05;26.40;;;23.67;;
13483;SDS011;6814;57.786;12.080;2022-09-25T08:40:31;25.73;;;23.27;;
13483;SDS011;6814;57.786;12.080;2022-09-25T08:42:58;24.17;;;21.67;;
13483;SDS011;6814;57.786;12.080;2022-09-25T08:45:26;25.03;;;22.67;;
13483;SDS011;6814;57.786;12.080;2022-09-25T08:48:14;25.53;;;22.90;;
13483;SDS011;6814;57.786;12.080;2022-09-25T08:51:00;24.30;;;22.10;;
13483;SDS011;6814;57.786;12.080;2022-09-25T08:53:29;24.80;;;22.30;;
13483;SDS011;6814;57.786;12.080;2022-09-25T08:55:56;23.40;;;21.10;;
13483;SDS011;6814;57.786;12.080;2022-09-25T08:58:46;25.53;;;22.57;;
13483;SDS011;6814;57.786;12.080;2022-09-25T09:01:16;24.00;;;21.73;;
13483;SDS011;6814;57.786;12.080;2022-09-25T09:03:44;24.97;;;22.50;;
13483;SDS011;6814;57.786;12.080;2022-09-25T09:06:14;22.57;;;20.47;;
13483;SDS011;6814;57.786;12.080;2022-09-25T09:08:43;23.23;;;21.00;;
13483;SDS011;6814;57.786;12.080;2022-09-25T09:11:12;21.33;;;19.33;;
13483;SDS011;6814;57.786;12.080;2022-09-25T09:13:41;19.60;;;17.90;;
13483;SDS011;6814;57.786;12.080;2022-09-25T09:16:09;19.23;;;17.53;;
13483;SDS011;6814;57.786;12.080;2022-09-25T09:18:40;18.60;;;17.10;;
13483;SDS011;6814;57.786;12.080;2022-09-25T09:21:09;17.30;;;15.70;;
13483;SDS011;6814;57.786;12.080;2022-09-25T09:23:41;16.13;;;14.73;;
13483;SDS011;6814;57.786;12.080;2022-09-25T09:26:14;14.13;;;13.03;;
13483;SDS011;6814;57.786;12.080;2022-09-25T09:28:54;14.73;;;13.53;;
13483;SDS011;6814;57.786;12.080;2022-09-25T09:31:24;14.30;;;13.10;;
13483;SDS011;6814;57.786;12.080;2022-09-25T09:33:54;12.53;;;11.40;;
13483;SDS011;6814;57.786;12.080;2022-09-25T09:36:26;12.43;;;11.23;;
13483;SDS011;6814;57.786;12.080;2022-09-25T09:38:58;11.33;;;10.43;;
13483;SDS011;6814;57.786;12.080;2022-09-25T09:41:31;10.80;;;9.87;;
13483;SDS011;6814;57.786;12.080;2022-09-25T09:44:03;10.40;;;9.50;;
13483;SDS011;6814;57.786;12.080;2022-09-25T09:46:35;11.00;;;9.90;;
13483;SDS011;6814;57.786;12.080;2022-09-25T09:49:08;10.10;;;9.10;;
13483;SDS011;6814;57.786;12.080;2022-09-25T09:51:36;12.10;;;11.00;;
13483;SDS011;6814;57.786;12.080;2022-09-25T09:54:07;12.00;;;11.00;;
13483;SDS011;6814;57.786;12.080;2022-09-25T09:56:35;13.87;;;12.77;;
13483;SDS011;6814;57.786;12.080;2022-09-25T09:59:03;12.37;;;11.47;;
13483;SDS011;6814;57.786;12.080;2022-09-25T10:01:30;11.90;;;10.83;;
13483;SDS011;6814;57.786;12.080;2022-09-25T10:04:00;11.63;;;10.63;;
13483;SDS011;6814;57.786;12.080;2022-09-25T10:06:28;11.97;;;10.93;;
13483;SDS011;6814;57.786;12.080;2022-09-25T10:08:55;13.53;;;12.33;;
13483;SDS011;6814;57.786;12.080;2022-09-25T10:11:23;13.77;;;12.50;;
13483;SDS011;6814;57.786;12.080;2022-09-25T10:13:50;12.27;;;11.27;;
13483;SDS011;6814;57.786;12.080;2022-09-25T10:16:18;12.70;;;11.80;;
13483;SDS011;6814;57.786;12.080;2022-09-25T10:18:46;12.73;;;11.77;;
13483;SDS011;6814;57.786;12.080;2022-09-25T10:21:14;12.80;;;11.80;;
13483;SDS011;6814;57.786;12.080;2022-09-25T10:23:46;11.93;;;10.90;;
13483;SDS011;6814;57.786;12.080;2022-09-25T10:26:24;12.17;;;11.20;;
13483;SDS011;6814;57.786;12.080;2022-09-25T10:28:51;11.87;;;10.77;;
13483;SDS011;6814;57.786;12.080;2022-09-25T10:31:21;10.97;;;10.07;;
13483;SDS011;6814;57.786;12.080;2022-09-25T10:33:59;10.60;;;9.70;;
13483;SDS011;6814;57.786;12.080;2022-09-25T10:36:30;10.57;;;9.67;;
13483;SDS011;6814;57.786;12.080;2022-09-25T10:38:57;9.37;;;8.70;;
13483;SDS011;6814;57.786;12.080;2022-09-25T10:41:25;9.33;;;8.43;;
13483;SDS011;6814;57.786;12.080;2022-09-25T10:43:52;10.30;;;7.60;;
13483;SDS011;6814;57.786;12.080;2022-09-25T10:46:24;7.50;;;6.90;;
13483;SDS011;6814;57.786;12.080;2022-09-25T10:49:13;7.10;;;6.50;;
13483;SDS011;6814;57.786;12.080;2022-09-25T10:52:01;6.90;;;6.37;;
13483;SDS011;6814;57.786;12.080;2022-09-25T10:54:29;6.40;;;5.90;;
13483;SDS011;6814;57.786;12.080;2022-09-25T10:56:57;6.57;;;5.70;;
13483;SDS011;6814;57.786;12.080;2022-09-25T10:59:23;5.93;;;5.37;;
13483;SDS011;6814;57.786;12.080;2022-09-25T11:01:50;6.17;;;5.57;;
13483;SDS011;6814;57.786;12.080;2022-09-25T11:04:19;5.17;;;4.70;;
13483;SDS011;6814;57.786;12.080;2022-09-25T11:06:47;5.47;;;4.97;;
13483;SDS011;6814;57.786;12.080;2022-09-25T11:09:16;4.83;;;4.53;;
13483;SDS011;6814;57.786;12.080;2022-09-25T11:11:43;4.80;;;4.00;;
13483;SDS011;6814;57.786;12.080;2022-09-25T11:14:19;3.80;;;3.50;;
13483;SDS011;6814;57.786;12.080;2022-09-25T11:16:48;3.90;;;3.63;;
13483;SDS011;6814;57.786;12.080;2022-09-25T11:19:17;3.47;;;3.17;;
13483;SDS011;6814;57.786;12.080;2022-09-25T11:21:49;3.10;;;2.90;;
13483;SDS011;6814;57.786;12.080;2022-09-25T11:24:22;3.57;;;3.27;;
13483;SDS011;6814;57.786;12.080;2022-09-25T11:26:54;4.30;;;3.30;;
13483;SDS011;6814;57.786;12.080;2022-09-25T11:29:25;3.27;;;2.97;;
13483;SDS011;6814;57.786;12.080;2022-09-25T11:31:57;2.70;;;2.60;;
13483;SDS011;6814;57.786;12.080;2022-09-25T11:34:31;3.00;;;2.70;;
13483;SDS011;6814;57.786;12.080;2022-09-25T11:37:03;3.20;;;2.93;;
13483;SDS011;6814;57.786;12.080;2022-09-25T11:39:32;2.93;;;2.73;;
13483;SDS011;6814;57.786;12.080;2022-09-25T11:42:18;4.47;;;3.00;;
13483;SDS011;6814;57.786;12.080;2022-09-25T11:44:52;3.60;;;2.90;;
13483;SDS011;6814;57.786;12.080;2022-09-25T11:47:23;3.20;;;2.93;;
13483;SDS011;6814;57.786;12.080;2022-09-25T11:49:52;3.33;;;3.10;;
13483;SDS011;6814;57.786;12.080;2022-09-25T11:52:28;3.13;;;2.77;;
13483;SDS011;6814;57.786;12.080;2022-09-25T11:57:40;2.97;;;2.57;;
13483;SDS011;6814;57.786;12.080;2022-09-25T12:00:12;3.50;;;2.53;;
13483;SDS011;6814;57.786;12.080;2022-09-25T12:02:46;2.83;;;2.00;;
13483;SDS011;6814;57.786;12.080;2022-09-25T12:05:23;2.90;;;2.50;;
13483;SDS011;6814;57.786;12.080;2022-09-25T12:10:38;2.80;;;2.50;;
13483;SDS011;6814;57.786;12.080;2022-09-25T12:13:09;3.00;;;1.97;;
13483;SDS011;6814;57.786;12.080;2022-09-25T12:15:45;2.77;;;1.87;;
13483;SDS011;6814;57.786;12.080;2022-09-25T12:18:17;2.63;;;2.43;;
13483;SDS011;6814;57.786;12.080;2022-09-25T12:20:46;3.90;;;2.77;;
13483;SDS011;6814;57.786;12.080;2022-09-25T12:23:16;4.50;;;2.80;;
13483;SDS011;6814;57.786;12.080;2022-09-25T12:25:49;2.93;;;2.70;;
13483;SDS011;6814;57.786;12.080;2022-09-25T12:28:20;3.63;;;2.77;;
13483;SDS011;6814;57.786;12.080;2022-09-25T12:30:53;2.97;;;2.67;;
13483;SDS011;6814;57.786;12.080;2022-09-25T12:33:24;3.30;;;3.00;;
13483;SDS011;6814;57.786;12.080;2022-09-25T12:35:52;3.83;;;2.60;;
13483;SDS011;6814;57.786;12.080;2022-09-25T12:38:26;2.87;;;2.53;;
13483;SDS011;6814;57.786;12.080;2022-09-25T12:40:56;3.53;;;3.23;;
13483;SDS011;6814;57.786;12.080;2022-09-25T12:43:26;4.70;;;3.07;;
13483;SDS011;6814;57.786;12.080;2022-09-25T12:45:59;3.63;;;3.20;;
13483;SDS011;6814;57.786;12.080;2022-09-25T12:48:32;3.30;;;3.00;;
13483;SDS011;6814;57.786;12.080;2022-09-25T12:51:00;4.37;;;3.30;;
13483;SDS011;6814;57.786;12.080;2022-09-25T12:53:29;4.00;;;3.60;;
13483;SDS011;6814;57.786;12.080;2022-09-25T12:55:58;3.50;;;3.20;;
13483;SDS011;6814;57.786;12.080;2022-09-25T12:58:29;3.43;;;2.87;;
13483;SDS011;6814;57.786;12.080;2022-09-25T13:01:04;4.33;;;3.30;;
13483;SDS011;6814;57.786;12.080;2022-09-25T13:03:33;3.70;;;3.40;;
13483;SDS011;6814;57.786;12.080;2022-09-25T13:06:06;4.07;;;3.40;;
13483;SDS011;6814;57.786;12.080;2022-09-25T13:08:36;3.17;;;2.63;;
13483;SDS011;6814;57.786;12.080;2022-09-25T13:11:04;4.33;;;3.33;;
13483;SDS011;6814;57.786;12.080;2022-09-25T13:13:47;3.77;;;3.13;;
13483;SDS011;6814;57.786;12.080;2022-09-25T13:16:19;2.10;;;2.00;;
13483;SDS011;6814;57.786;12.080;2022-09-25T13:18:46;3.53;;;2.17;;
13483;SDS011;6814;57.786;12.080;2022-09-25T13:21:22;4.43;;;2.00;;
13483;SDS011;6814;57.786;12.080;2022-09-25T13:23:50;2.50;;;2.27;;
13483;SDS011;6814;57.786;12.080;2022-09-25T13:26:17;2.30;;;2.10;;
13483;SDS011;6814;57.786;12.080;2022-09-25T13:28:47;1.90;;;1.70;;
13483;SDS011;6814;57.786;12.080;2022-09-25T13:31:21;4.40;;;2.20;;
13483;SDS011;6814;57.786;12.080;2022-09-25T13:33:49;2.03;;;1.83;;
13483;SDS011;6814;57.786;12.080;2022-09-25T13:39:03;3.20;;;2.30;;
13483;SDS011;6814;57.786;12.080;2022-09-25T13:41:52;2.60;;;2.30;;
13483;SDS011;6814;57.786;12.080;2022-09-25T13:49:52;3.33;;;2.13;;
13483;SDS011;6814;57.786;12.080;2022-09-25T13:52:28;1.97;;;1.70;;
13483;SDS011;6814;57.786;12.080;2022-09-25T13:55:06;3.63;;;1.80;;
13483;SDS011;6814;57.786;12.080;2022-09-25T14:00:14;2.30;;;1.63;;
13483;SDS011;6814;57.786;12.080;2022-09-25T14:02:41;1.47;;;1.20;;
13483;SDS011;6814;57.786;12.080;2022-09-25T14:05:09;2.30;;;1.63;;
13483;SDS011;6814;57.786;12.080;2022-09-25T14:07:39;2.07;;;1.63;;
13483;SDS011;6814;57.786;12.080;2022-09-25T14:10:06;2.63;;;1.40;;
13483;SDS011;6814;57.786;12.080;2022-09-25T14:12:35;2.27;;;1.40;;
13483;SDS011;6814;57.786;12.080;2022-09-25T14:15:06;2.50;;;1.40;;
13483;SDS011;6814;57.786;12.080;2022-09-25T14:17:38;1.93;;;1.37;;
13483;SDS011;6814;57.786;12.080;2022-09-25T14:20:17;1.30;;;1.20;;
13483;SDS011;6814;57.786;12.080;2022-09-25T14:22:49;1.90;;;1.20;;
13483;SDS011;6814;57.786;12.080;2022-09-25T14:25:27;1.87;;;1.40;;
13483;SDS011;6814;57.786;12.080;2022-09-25T14:27:56;1.50;;;1.40;;
13483;SDS011;6814;57.786;12.080;2022-09-25T14:30:23;3.20;;;1.47;;
13483;SDS011;6814;57.786;12.080;2022-09-25T14:33:00;1.73;;;1.30;;
13483;SDS011;6814;57.786;12.080;2022-09-25T14:35:30;2.90;;;1.50;;
13483;SDS011;6814;57.786;12.080;2022-09-25T14:40:51;2.67;;;1.20;;
13483;SDS011;6814;57.786;12.080;2022-09-25T14:43:27;2.07;;;1.40;;
13483;SDS011;6814;57.786;12.080;2022-09-25T14:45:59;3.77;;;1.90;;
13483;SDS011;6814;57.786;12.080;2022-09-25T14:48:26;2.23;;;1.53;;
13483;SDS011;6814;57.786;12.080;2022-09-25T14:50:54;3.53;;;1.80;;
13483;SDS011;6814;57.786;12.080;2022-09-25T14:53:23;4.17;;;3.77;;
13483;SDS011;6814;57.786;12.080;2022-09-25T14:55:53;1.80;;;1.70;;
13483;SDS011;6814;57.786;12.080;2022-09-25T14:58:20;3.30;;;1.70;;
13483;SDS011;6814;57.786;12.080;2022-09-25T15:00:49;2.77;;;1.50;;